createdAt,value
2024-01-06T00:02:03.749Z,100505.44
2024-01-06T00:04:30.311Z,100510.44
2024-01-06T00:06:56.886Z,100510.22
2024-01-06T00:09:23.450Z,100516.56
2024-01-06T00:11:50.101Z,100517.81
2024-01-06T00:14:16.565Z,100523.13
2024-01-06T00:16:43.036Z,100523.13
2024-01-06T00:19:09.669Z,100532.13
2024-01-06T00:21:36.177Z,100538.47
2024-01-06T00:24:02.761Z,100544.50
2024-01-06T00:26:29.256Z,100550.75
2024-01-06T00:28:55.764Z,100555.50
2024-01-06T00:31:22.362Z,100556.53
2024-01-06T00:33:48.996Z,100551.69
2024-01-06T00:36:15.598Z,100551.59
2024-01-06T00:38:42.180Z,100548.94
2024-01-06T00:41:08.718Z,100547.78
2024-01-06T00:43:35.237Z,100557.34
2024-01-06T00:46:01.813Z,100555.41
2024-01-06T00:48:28.368Z,100559.44
2024-01-06T00:50:54.937Z,100559.19
2024-01-06T00:53:22.513Z,100564.28
2024-01-06T00:55:49.019Z,100562.88
2024-01-06T00:58:15.490Z,100563.38
2024-01-06T01:00:42.234Z,100564.88
2024-01-06T01:03:08.803Z,100566.47
2024-01-06T01:05:35.358Z,100566.25
2024-01-06T01:08:03.304Z,100573.88
2024-01-06T01:10:29.761Z,100576.84
2024-01-06T01:12:56.270Z,100580.91
2024-01-06T01:15:22.924Z,100584.81
2024-01-06T01:17:49.563Z,100590.81
2024-01-06T01:20:16.037Z,100594.16
2024-01-06T01:22:42.490Z,100602.13
2024-01-06T01:25:09.443Z,100604.19
2024-01-06T01:27:35.960Z,100605.72
2024-01-06T01:30:02.708Z,100609.41
2024-01-06T01:32:29.487Z,100611.69
2024-01-06T01:34:56.202Z,100610.06
2024-01-06T01:37:22.746Z,100620.13
2024-01-06T01:39:49.408Z,100623.94
2024-01-06T01:42:15.902Z,100633.94
2024-01-06T01:44:42.438Z,100643.63
2024-01-06T01:47:09.024Z,100642.59
2024-01-06T01:49:37.198Z,100647.31
2024-01-06T01:52:04.686Z,100652.38
2024-01-06T01:54:31.380Z,100654.91
2024-01-06T01:56:57.989Z,100646.16
2024-01-06T01:59:24.613Z,100653.31
2024-01-06T02:01:51.264Z,100654.34
2024-01-06T02:04:17.949Z,100661.47
2024-01-06T02:06:44.495Z,100656.75
2024-01-06T02:09:11.029Z,100662.63
2024-01-06T02:11:37.487Z,100667.16
2024-01-06T02:14:03.960Z,100669.81
2024-01-06T02:16:30.415Z,100667.34
2024-01-06T02:18:59.214Z,100672.66
2024-01-06T02:21:29.207Z,100675.91
2024-01-06T02:23:55.674Z,100674.63
2024-01-06T02:26:22.083Z,100681.19
2024-01-06T02:28:50.372Z,100687.28
2024-01-06T02:31:17.038Z,100678.53
2024-01-06T02:33:43.912Z,100686.16
2024-01-06T02:36:10.540Z,100682.47
2024-01-06T02:38:37.102Z,100692.25
2024-01-06T02:41:03.826Z,100693.53
2024-01-06T02:43:30.262Z,100699.06
2024-01-06T02:45:56.806Z,100699.25
2024-01-06T02:48:23.429Z,100711.03
2024-01-06T02:50:50.046Z,100709.66
2024-01-06T02:53:16.668Z,100716.00
2024-01-06T02:55:43.124Z,100718.06
2024-01-06T02:58:09.738Z,100714.81
2024-01-06T03:00:36.473Z,100714.00
2024-01-06T03:03:03.259Z,100714.00
2024-01-06T03:05:29.802Z,100717.72
2024-01-06T03:07:56.550Z,100716.09
2024-01-06T03:10:23.659Z,100716.09
2024-01-06T03:12:50.261Z,100718.94
2024-01-06T03:15:16.940Z,100719.97
2024-01-06T03:17:43.644Z,100723.91
2024-01-06T03:20:10.485Z,100730.00
2024-01-06T03:22:38.160Z,100737.75
2024-01-06T03:25:05.387Z,100743.47
2024-01-06T03:27:31.847Z,100746.97
2024-01-06T03:29:58.355Z,100742.81
2024-01-06T03:32:25.731Z,100743.25
2024-01-06T03:34:52.343Z,100749.59
2024-01-06T03:37:18.828Z,100759.38
2024-01-06T03:39:45.399Z,100760.22
2024-01-06T03:42:11.962Z,100769.75
2024-01-06T03:44:38.739Z,100780.34
2024-01-06T03:47:05.324Z,100789.50
2024-01-06T03:49:32.049Z,100786.25
2024-01-06T03:51:58.618Z,100789.38
2024-01-06T03:54:25.373Z,100785.53
2024-01-06T03:56:51.880Z,100789.22
2024-01-06T03:59:18.456Z,100785.31
2024-01-06T04:01:44.939Z,100791.63
2024-01-06T04:04:11.605Z,100801.44
2024-01-06T04:06:38.207Z,100801.44
2024-01-06T04:09:04.741Z,100813.88
2024-01-06T04:11:31.186Z,100813.50
2024-01-06T04:13:57.696Z,100814.09
2024-01-06T04:16:24.180Z,100813.31
2024-01-06T04:18:50.919Z,100807.19
2024-01-06T04:21:17.638Z,100813.75
2024-01-06T04:23:44.159Z,100811.88
2024-01-06T04:26:11.103Z,100816.16
2024-01-06T04:28:37.641Z,100801.94
2024-01-06T04:31:04.711Z,100815.44
2024-01-06T04:33:32.453Z,100806.22
2024-01-06T04:36:00.115Z,100814.41
2024-01-06T04:38:26.700Z,100819.13
2024-01-06T04:40:53.170Z,100821.53
2024-01-06T04:43:19.632Z,100826.47
2024-01-06T04:45:46.250Z,100829.13
2024-01-06T04:48:13.248Z,100828.97
2024-01-06T04:50:39.845Z,100825.75
2024-01-06T04:53:06.397Z,100833.53
2024-01-06T04:55:32.931Z,100840.47
2024-01-06T04:57:59.428Z,100837.44
2024-01-06T05:00:26.818Z,100845.16
2024-01-06T05:02:53.471Z,100848.25
2024-01-06T05:05:20.149Z,100844.19
2024-01-06T05:07:46.720Z,100849.13
2024-01-06T05:10:13.267Z,100851.19
2024-01-06T05:12:39.889Z,100852.81
2024-01-06T05:15:06.746Z,100859.72
2024-01-06T05:17:33.327Z,100863.19
2024-01-06T05:20:01.354Z,100864.19
2024-01-06T05:22:27.952Z,100874.44
2024-01-06T05:24:54.887Z,100870.97
2024-01-06T05:27:21.593Z,100888.03
2024-01-06T05:29:50.317Z,100880.53
2024-01-06T05:32:17.858Z,100892.59
2024-01-06T05:34:45.768Z,100892.81
2024-01-06T05:37:12.724Z,100887.72
2024-01-06T05:39:40.781Z,100893.44
2024-01-06T05:42:09.006Z,100896.09
2024-01-06T05:44:38.835Z,100900.38
2024-01-06T05:47:05.817Z,100904.88
2024-01-06T05:49:32.465Z,100904.88
2024-01-06T05:51:59.177Z,100903.84
2024-01-06T05:54:25.863Z,100912.81
2024-01-06T05:56:52.688Z,100915.28
2024-01-06T05:59:19.247Z,100906.75
2024-01-06T06:01:45.970Z,100908.00
2024-01-06T06:04:12.939Z,100918.38
2024-01-06T06:06:39.653Z,100923.88
2024-01-06T06:09:08.177Z,100928.59
2024-01-06T06:11:35.110Z,100934.91
2024-01-06T06:14:03.921Z,100937.34
2024-01-06T06:16:30.894Z,100947.53
2024-01-06T06:18:57.682Z,100949.81
2024-01-06T06:21:24.341Z,100949.22
2024-01-06T06:23:51.132Z,100953.72
2024-01-06T06:26:17.708Z,100955.75
2024-01-06T06:28:44.601Z,100960.22
2024-01-06T06:31:11.322Z,100963.09
2024-01-06T06:33:38.076Z,100964.50
2024-01-06T06:36:05.367Z,100968.00
2024-01-06T06:38:31.863Z,100972.88
2024-01-06T06:40:58.536Z,100977.34
2024-01-06T06:43:25.137Z,100982.66
2024-01-06T06:45:51.736Z,100987.16
2024-01-06T06:48:18.511Z,100989.78
2024-01-06T06:50:45.305Z,100998.94
2024-01-06T06:53:11.883Z,101000.56
2024-01-06T06:55:38.824Z,101001.59
2024-01-06T06:58:06.546Z,101010.59
2024-01-06T07:00:33.649Z,101008.97
2024-01-06T07:03:01.291Z,101021.75
2024-01-06T07:05:27.881Z,101024.41
2024-01-06T07:07:54.484Z,101023.38
2024-01-06T07:10:21.066Z,101029.50
2024-01-06T07:12:47.622Z,101035.97
2024-01-06T07:15:14.260Z,101031.13
2024-01-06T07:17:41.280Z,101050.31
2024-01-06T07:20:08.848Z,101037.06
2024-01-06T07:22:38.311Z,101051.31
2024-01-06T07:25:05.247Z,101056.63
2024-01-06T07:27:31.731Z,101060.06
2024-01-06T07:29:58.438Z,101054.38
2024-01-06T07:32:26.070Z,101056.41
2024-01-06T07:34:52.905Z,101066.38
2024-01-06T07:37:19.530Z,101066.78
2024-01-06T07:39:46.057Z,101064.75
2024-01-06T07:42:12.885Z,101063.56
2024-01-06T07:44:39.482Z,101076.56
2024-01-06T07:47:06.861Z,101074.16
2024-01-06T07:49:33.816Z,101081.25
2024-01-06T07:52:01.139Z,101092.25
2024-01-06T07:54:28.044Z,101096.72
2024-01-06T07:56:54.923Z,101105.91
2024-01-06T07:59:21.358Z,101111.00
2024-01-06T08:01:47.830Z,101109.13
2024-01-06T08:04:14.619Z,101109.13
2024-01-06T08:06:41.355Z,101112.22
2024-01-06T08:09:07.884Z,101118.94
2024-01-06T08:11:34.416Z,101124.22
2024-01-06T08:14:00.962Z,101124.84
2024-01-06T08:16:27.738Z,101127.66
2024-01-06T08:18:54.377Z,101139.88
2024-01-06T08:21:20.973Z,101135.41
2024-01-06T08:23:47.524Z,101139.88
2024-01-06T08:26:14.086Z,101131.75
2024-01-06T08:28:40.687Z,101142.13
2024-01-06T08:31:07.324Z,101137.66
2024-01-06T08:33:34.052Z,101144.78
2024-01-06T08:36:01.065Z,101156.19
2024-01-06T08:38:27.784Z,101148.44
2024-01-06T08:40:54.920Z,101154.13
2024-01-06T08:43:21.715Z,101160.03
2024-01-06T08:45:49.115Z,101166.94
2024-01-06T08:48:16.626Z,101172.84
2024-01-06T08:50:43.599Z,101180.19
2024-01-06T08:53:10.178Z,101187.09
2024-01-06T08:55:36.819Z,101185.88
2024-01-06T08:58:03.562Z,101193.63
2024-01-06T09:00:30.795Z,101193.63
2024-01-06T09:02:57.452Z,101201.56
2024-01-06T09:05:24.031Z,101208.91
2024-01-06T09:07:54.777Z,101204.41
2024-01-06T09:10:22.405Z,101216.22
2024-01-06T09:12:49.119Z,101213.19
2024-01-06T09:15:15.958Z,101220.28
2024-01-06T09:17:42.819Z,101215.22
2024-01-06T09:20:10.021Z,101221.31
2024-01-06T09:22:36.526Z,101223.34
2024-01-06T09:25:03.399Z,101238.41
2024-01-06T09:27:30.119Z,101231.09
2024-01-06T09:29:56.596Z,101243.69
2024-01-06T09:32:24.361Z,101247.16
2024-01-06T09:34:51.165Z,101251.41
2024-01-06T09:37:17.783Z,101249.38
2024-01-06T09:39:44.415Z,101245.28
2024-01-06T09:42:12.662Z,101256.28
2024-01-06T09:44:39.431Z,101264.63
2024-01-06T09:47:07.045Z,101268.13
2024-01-06T09:49:35.806Z,101272.38
2024-01-06T09:52:03.201Z,101269.53
2024-01-06T09:54:34.919Z,101268.88
2024-01-06T09:57:04.557Z,101278.69
2024-01-06T09:59:35.682Z,101277.44
2024-01-06T10:02:02.916Z,101274.00
2024-01-06T10:04:29.451Z,101279.91
2024-01-06T10:06:56.539Z,101276.81
2024-01-06T10:09:32.133Z,101283.97
2024-01-06T10:12:00.075Z,101301.28
2024-01-06T10:14:26.855Z,101294.97
2024-01-06T10:16:53.878Z,101303.53
2024-01-06T10:19:20.922Z,101315.16
2024-01-06T10:21:48.161Z,101309.84
2024-01-06T10:24:15.079Z,101312.09
2024-01-06T10:26:42.301Z,101316.56
2024-01-06T10:29:08.849Z,101325.94
2024-01-06T10:31:35.731Z,101326.13
2024-01-06T10:34:02.671Z,101331.03
2024-01-06T10:36:29.773Z,101333.91
2024-01-06T10:38:56.899Z,101328.81
2024-01-06T10:41:24.032Z,101328.19
2024-01-06T10:43:52.457Z,101327.78
2024-01-06T10:46:23.953Z,101327.00
2024-01-06T10:48:52.750Z,101336.56
2024-01-06T10:51:20.396Z,101332.69
2024-01-06T10:53:48.736Z,101326.78
2024-01-06T10:56:15.438Z,101332.28
2024-01-06T10:58:48.512Z,101339.81
2024-01-06T11:01:18.601Z,101344.69
2024-01-06T11:03:48.687Z,101338.19
2024-01-06T11:06:15.912Z,101346.94
2024-01-06T11:08:51.028Z,101344.06
2024-01-06T11:11:19.745Z,101350.19
2024-01-06T11:13:49.007Z,101349.38
2024-01-06T11:16:35.463Z,101351.22
2024-01-06T11:19:02.265Z,101359.78
2024-01-06T11:21:34.670Z,101353.25
2024-01-06T11:24:07.824Z,101352.22
2024-01-06T11:26:34.425Z,101358.34
2024-01-06T11:29:02.141Z,101349.34
2024-01-06T11:31:32.208Z,101352.84
2024-01-06T11:34:13.867Z,101358.53
2024-01-06T11:36:40.537Z,101357.13
2024-01-06T11:39:07.324Z,101353.66
2024-01-06T11:41:50.741Z,101352.63
2024-01-06T11:44:21.870Z,101357.94
2024-01-06T11:46:49.946Z,101358.75
2024-01-06T11:49:22.474Z,101363.22
2024-01-06T11:51:50.100Z,101363.66
2024-01-06T11:54:16.993Z,101355.50
2024-01-06T11:56:43.529Z,101355.09
2024-01-06T11:59:10.025Z,101360.16
2024-01-06T12:01:40.595Z,101360.38
2024-01-06T12:04:07.752Z,101363.66
2024-01-06T12:06:35.448Z,101360.38
2024-01-06T12:09:09.266Z,101361.41
2024-01-06T12:11:35.875Z,101360.19
2024-01-06T12:14:02.269Z,101361.41
2024-01-06T12:16:28.939Z,101363.22
2024-01-06T12:18:56.667Z,101366.72
2024-01-06T12:21:26.522Z,101367.91
2024-01-06T12:23:53.058Z,101373.22
2024-01-06T12:26:20.270Z,101375.88
2024-01-06T12:28:47.281Z,101381.38
2024-01-06T12:31:14.138Z,101375.28
2024-01-06T12:33:41.549Z,101379.13
2024-01-06T12:36:17.638Z,101378.13
2024-01-06T12:38:47.777Z,101387.09
2024-01-06T12:41:14.224Z,101383.63
2024-01-06T12:43:40.779Z,101386.69
2024-01-06T12:46:07.286Z,101382.41
2024-01-06T12:48:33.939Z,101377.31
2024-01-06T12:51:00.535Z,101383.25
2024-01-06T12:53:27.010Z,101382.22
2024-01-06T12:55:53.532Z,101376.09
2024-01-06T12:58:20.078Z,101381.78
2024-01-06T13:00:47.137Z,101381.38
2024-01-06T13:03:15.630Z,101391.59
2024-01-06T13:05:42.427Z,101395.03
2024-01-06T13:08:09.008Z,101383.44
2024-01-06T13:10:37.032Z,101397.06
2024-01-06T13:13:04.016Z,101400.56
2024-01-06T13:15:30.642Z,101393.22
2024-01-06T13:17:58.117Z,101390.19
2024-01-06T13:20:24.659Z,101394.84
2024-01-06T13:22:52.383Z,101403.00
2024-01-06T13:25:21.120Z,101400.34
2024-01-06T13:27:47.715Z,101404.63
2024-01-06T13:30:17.849Z,101405.44
2024-01-06T13:32:45.735Z,101406.25
2024-01-06T13:35:13.057Z,101409.31
2024-01-06T13:37:40.028Z,101407.66
2024-01-06T13:40:08.343Z,101416.84
2024-01-06T13:42:35.689Z,101422.53
2024-01-06T13:45:04.907Z,101421.75
2024-01-06T13:47:31.529Z,101419.31
2024-01-06T13:49:59.136Z,101420.31
2024-01-06T13:52:25.814Z,101423.97
2024-01-06T13:54:53.077Z,101426.19
2024-01-06T13:57:19.742Z,101432.31
2024-01-06T13:59:46.386Z,101434.75
2024-01-06T14:02:12.956Z,101440.06
2024-01-06T14:04:40.039Z,101446.59
2024-01-06T14:07:06.812Z,101448.00
2024-01-06T14:09:33.509Z,101450.84
2024-01-06T14:12:00.086Z,101451.06
2024-01-06T14:14:27.625Z,101453.09
2024-01-06T14:16:54.315Z,101449.00
2024-01-06T14:19:20.945Z,101454.91
2024-01-06T14:21:47.456Z,101453.91
2024-01-06T14:24:13.968Z,101460.22
2024-01-06T14:26:43.288Z,101461.44
2024-01-06T14:29:09.919Z,101459.00
2024-01-06T14:31:36.465Z,101471.41
2024-01-06T14:34:04.239Z,101480.19
2024-01-06T14:36:30.952Z,101480.19
2024-01-06T14:38:57.353Z,101479.97
2024-01-06T14:41:24.502Z,101485.25
2024-01-06T14:43:51.097Z,101485.47
2024-01-06T14:46:17.692Z,101493.41
2024-01-06T14:48:44.381Z,101490.94
2024-01-06T14:51:11.028Z,101502.56
2024-01-06T14:53:37.474Z,101505.63
2024-01-06T14:56:04.737Z,101507.03
2024-01-06T14:58:31.437Z,101509.06
2024-01-06T15:00:58.099Z,101509.47
2024-01-06T15:03:24.880Z,101515.38
2024-01-06T15:05:51.553Z,101520.88
2024-01-06T15:08:18.018Z,101513.75
2024-01-06T15:10:44.597Z,101513.34
2024-01-06T15:13:11.131Z,101507.81
2024-01-06T15:15:37.709Z,101515.59
2024-01-06T15:18:05.259Z,101520.06
2024-01-06T15:20:31.798Z,101519.03
2024-01-06T15:22:58.294Z,101524.34
2024-01-06T15:25:24.861Z,101523.09
2024-01-06T15:27:53.697Z,101527.59
2024-01-06T15:30:20.401Z,101529.25
2024-01-06T15:32:47.824Z,101533.31
2024-01-06T15:35:14.426Z,101535.16
2024-01-06T15:37:40.908Z,101535.97
2024-01-06T15:40:09.056Z,101540.44
2024-01-06T15:42:35.690Z,101539.44
2024-01-06T15:45:02.409Z,101543.09
2024-01-06T15:47:28.880Z,101546.38
2024-01-06T15:49:55.562Z,101551.03
2024-01-06T15:52:23.021Z,101551.66
2024-01-06T15:54:50.148Z,101554.31
2024-01-06T15:57:16.706Z,101565.28
2024-01-06T15:59:43.246Z,101565.28
2024-01-06T16:02:10.025Z,101571.59
2024-01-06T16:04:36.630Z,101563.66
2024-01-06T16:07:03.819Z,101574.25
2024-01-06T16:09:30.424Z,101576.25
2024-01-06T16:11:58.389Z,101570.97
2024-01-06T16:14:26.692Z,101580.75
2024-01-06T16:16:54.120Z,101586.22
2024-01-06T16:19:21.165Z,101586.44
2024-01-06T16:21:48.839Z,101583.97
2024-01-06T16:24:19.620Z,101601.69
2024-01-06T16:26:46.600Z,101603.72
2024-01-06T16:29:13.090Z,101604.31
2024-01-06T16:31:39.761Z,101605.53
2024-01-06T16:34:06.682Z,101604.91
2024-01-06T16:36:33.366Z,101615.06
2024-01-06T16:38:59.846Z,101607.13
2024-01-06T16:41:27.432Z,101614.44
2024-01-06T16:43:54.067Z,101619.72
2024-01-06T16:46:20.598Z,101611.78
2024-01-06T16:48:47.401Z,101616.25
2024-01-06T16:51:15.800Z,101623.19
2024-01-06T16:53:42.580Z,101614.44
2024-01-06T16:56:09.156Z,101622.75
2024-01-06T16:58:38.296Z,101620.31
2024-01-06T17:01:06.901Z,101628.63
2024-01-06T17:03:33.551Z,101628.00
2024-01-06T17:06:00.256Z,101637.78
2024-01-06T17:08:26.802Z,101635.53
2024-01-06T17:10:53.393Z,101637.34
2024-01-06T17:13:20.681Z,101632.25
2024-01-06T17:15:47.254Z,101634.91
2024-01-06T17:18:14.006Z,101635.69
2024-01-06T17:20:40.679Z,101637.13
2024-01-06T17:23:07.276Z,101639.31
2024-01-06T17:25:35.235Z,101641.34
2024-01-06T17:28:01.999Z,101649.66
2024-01-06T17:30:29.007Z,101647.03
2024-01-06T17:32:56.142Z,101651.06
2024-01-06T17:35:23.185Z,101651.88
2024-01-06T17:37:49.702Z,101658.56
2024-01-06T17:40:18.428Z,101657.13
2024-01-06T17:42:45.075Z,101659.78
2024-01-06T17:45:11.819Z,101657.50
2024-01-06T17:47:40.275Z,101656.88
2024-01-06T17:50:07.265Z,101663.00
2024-01-06T17:52:33.861Z,101654.81
2024-01-06T17:55:00.408Z,101662.75
2024-01-06T17:57:29.163Z,101669.66
2024-01-06T17:59:58.329Z,101672.47
2024-01-06T18:02:25.669Z,101664.53
2024-01-06T18:04:52.847Z,101674.91
2024-01-06T18:07:19.583Z,101682.19
2024-01-06T18:09:46.502Z,101683.84
2024-01-06T18:12:13.043Z,101691.75
2024-01-06T18:14:39.616Z,101693.78
2024-01-06T18:17:07.362Z,101689.50
2024-01-06T18:19:34.013Z,101698.63
2024-01-06T18:22:00.661Z,101692.91
2024-01-06T18:24:27.677Z,101694.91
2024-01-06T18:26:54.219Z,101697.56
2024-01-06T18:29:22.699Z,101702.00
2024-01-06T18:31:50.199Z,101709.78
2024-01-06T18:34:19.544Z,101706.50
2024-01-06T18:36:46.267Z,101706.06
2024-01-06T18:39:13.089Z,101712.53
2024-01-06T18:41:40.925Z,101711.72
2024-01-06T18:44:10.919Z,101715.16
2024-01-06T18:46:38.803Z,101716.81
2024-01-06T18:49:07.062Z,101723.72
2024-01-06T18:51:38.666Z,101722.94
2024-01-06T18:54:08.706Z,101719.44
2024-01-06T18:56:35.305Z,101725.56
2024-01-06T18:59:01.950Z,101721.91
2024-01-06T19:01:29.073Z,101728.22
2024-01-06T19:03:55.886Z,101729.22
2024-01-06T19:06:22.394Z,101728.38
2024-01-06T19:08:49.342Z,101732.88
2024-01-06T19:11:15.906Z,101731.03
2024-01-06T19:13:42.554Z,101737.31
2024-01-06T19:16:09.153Z,101736.88
2024-01-06T19:18:35.793Z,101735.25
2024-01-06T19:21:02.398Z,101740.88
2024-01-06T19:23:29.065Z,101745.16
2024-01-06T19:25:55.711Z,101745.16
2024-01-06T19:28:22.565Z,101747.22
2024-01-06T19:30:49.232Z,101744.56
2024-01-06T19:33:15.765Z,101749.22
2024-01-06T19:35:42.356Z,101751.84
2024-01-06T19:38:09.524Z,101750.84
2024-01-06T19:40:36.135Z,101749.00
2024-01-06T19:43:03.690Z,101744.56
2024-01-06T19:45:30.552Z,101762.44
2024-01-06T19:47:57.180Z,101758.78
2024-01-06T19:50:24.514Z,101757.13
2024-01-06T19:52:52.866Z,101760.94
2024-01-06T19:55:19.351Z,101769.28
2024-01-06T19:57:45.951Z,101772.91
2024-01-06T20:00:13.114Z,101776.56
2024-01-06T20:02:40.161Z,101777.72
2024-01-06T20:05:08.100Z,101782.22
2024-01-06T20:07:35.545Z,101779.56
2024-01-06T20:10:02.240Z,101785.50
2024-01-06T20:12:28.940Z,101785.84
2024-01-06T20:14:57.837Z,101793.97
2024-01-06T20:17:25.014Z,101794.78
2024-01-06T20:19:51.614Z,101791.88
2024-01-06T20:22:18.211Z,101791.97
2024-01-06T20:24:45.001Z,101792.81
2024-01-06T20:27:11.676Z,101796.69
2024-01-06T20:29:38.169Z,101800.19
2024-01-06T20:32:05.220Z,101799.53
2024-01-06T20:34:32.038Z,101806.81
2024-01-06T20:36:58.649Z,101807.00
2024-01-06T20:39:25.747Z,101810.81
2024-01-06T20:41:52.816Z,101820.78
2024-01-06T20:44:19.333Z,101813.84
2024-01-06T20:46:45.883Z,101815.50
2024-01-06T20:49:12.562Z,101818.13
2024-01-06T20:51:39.078Z,101814.00
2024-01-06T20:54:06.783Z,101817.66
2024-01-06T20:56:33.964Z,101812.22
2024-01-06T20:59:00.789Z,101818.28
2024-01-06T21:01:27.434Z,101819.28
2024-01-06T21:03:56.165Z,101809.13
2024-01-06T21:06:22.734Z,101818.50
2024-01-06T21:08:49.470Z,101822.22
2024-01-06T21:11:16.404Z,101825.50
2024-01-06T21:13:42.882Z,101822.84
2024-01-06T21:16:09.830Z,101820.22
2024-01-06T21:18:38.603Z,101822.03
2024-01-06T21:21:06.223Z,101822.41
2024-01-06T21:23:40.447Z,101833.34
2024-01-06T21:26:14.396Z,101837.34
2024-01-06T21:28:40.953Z,101831.50
2024-01-06T21:31:07.592Z,101831.50
2024-01-06T21:33:34.377Z,101836.34
2024-01-06T21:36:00.895Z,101827.31
2024-01-06T21:38:27.398Z,101837.44
2024-01-06T21:40:53.985Z,101831.66
2024-01-06T21:43:21.162Z,101839.13
2024-01-06T21:45:47.780Z,101845.41
2024-01-06T21:48:14.551Z,101840.97
2024-01-06T21:50:41.113Z,101845.59
2024-01-06T21:53:07.653Z,101851.53
2024-01-06T21:55:34.238Z,101840.97
2024-01-06T21:58:01.425Z,101844.41
2024-01-06T22:00:28.254Z,101845.41
2024-01-06T22:02:54.953Z,101851.34
2024-01-06T22:05:21.577Z,101848.69
2024-01-06T22:07:48.184Z,101855.34
2024-01-06T22:10:14.831Z,101855.88
2024-01-06T22:12:41.439Z,101862.00
2024-01-06T22:15:08.527Z,101860.69
2024-01-06T22:17:35.490Z,101870.63
2024-01-06T22:20:02.191Z,101863.69
2024-01-06T22:22:30.333Z,101879.53
2024-01-06T22:24:57.014Z,101877.53
2024-01-06T22:27:23.651Z,101880.19
2024-01-06T22:29:50.226Z,101878.53
2024-01-06T22:32:16.774Z,101874.09
2024-01-06T22:34:45.557Z,101870.81
2024-01-06T22:37:12.576Z,101878.72
2024-01-06T22:39:42.671Z,101879.06
2024-01-06T22:42:09.457Z,101876.25
2024-01-06T22:44:36.139Z,101881.81
2024-01-06T22:47:02.767Z,101889.75
2024-01-06T22:49:29.525Z,101886.28
2024-01-06T22:51:56.084Z,101890.94
2024-01-06T22:54:22.742Z,101893.91
2024-01-06T22:56:49.483Z,101905.28
2024-01-06T22:59:16.596Z,101910.09
2024-01-06T23:01:43.182Z,101910.94
2024-01-06T23:04:09.838Z,101908.09
2024-01-06T23:06:37.077Z,101916.69
2024-01-06T23:09:05.701Z,101916.50
2024-01-06T23:11:32.440Z,101913.84
2024-01-06T23:13:59.037Z,101920.31
2024-01-06T23:16:25.753Z,101913.38
2024-01-06T23:18:53.031Z,101919.66
2024-01-06T23:21:19.578Z,101922.75
2024-01-06T23:23:46.664Z,101921.50
2024-01-06T23:26:13.143Z,101926.47
2024-01-06T23:28:39.604Z,101931.56
2024-01-06T23:31:06.340Z,101929.56
2024-01-06T23:33:33.529Z,101928.47
2024-01-06T23:36:00.358Z,101930.66
2024-01-06T23:38:27.227Z,101936.16
2024-01-06T23:40:53.701Z,101945.56
2024-01-06T23:43:20.196Z,101943.91
2024-01-06T23:45:46.777Z,101945.56
2024-01-06T23:48:13.350Z,101951.97
2024-01-06T23:50:39.836Z,101951.97
2024-01-06T23:53:06.402Z,101951.97
2024-01-06T23:55:32.898Z,101953.47
2024-01-06T23:57:59.359Z,101953.47
